sensor_id;sensor_type;location;lat;lon;timestamp;P1;durP1;ratioP1;P2;durP2;ratioP2
77055;SDS011;67471;44.918;8.614;2023-05-10T00:02:36;12.13;;;10.13;;
77055;SDS011;67471;44.918;8.614;2023-05-10T00:05:40;12.43;;;10.25;;
77055;SDS011;67471;44.918;8.614;2023-05-10T00:08:44;12.45;;;10.63;;
77055;SDS011;67471;44.918;8.614;2023-05-10T00:11:48;13.82;;;10.50;;
77055;SDS011;67471;44.918;8.614;2023-05-10T00:14:52;14.60;;;10.95;;
77055;SDS011;67471;44.918;8.614;2023-05-10T00:17:56;13.10;;;11.10;;
77055;SDS011;67471;44.918;8.614;2023-05-10T00:21:00;13.05;;;10.15;;
77055;SDS011;67471;44.918;8.614;2023-05-10T00:24:04;12.93;;;10.63;;
77055;SDS011;67471;44.918;8.614;2023-05-10T00:27:08;16.67;;;11.02;;
77055;SDS011;67471;44.918;8.614;2023-05-10T00:30:11;14.95;;;10.95;;
77055;SDS011;67471;44.918;8.614;2023-05-10T00:33:15;13.50;;;9.95;;
77055;SDS011;67471;44.918;8.614;2023-05-10T00:36:19;14.43;;;10.60;;
77055;SDS011;67471;44.918;8.614;2023-05-10T00:39:24;13.82;;;10.38;;
77055;SDS011;67471;44.918;8.614;2023-05-10T00:42:29;15.82;;;11.30;;
77055;SDS011;67471;44.918;8.614;2023-05-10T00:45:33;13.90;;;10.25;;
77055;SDS011;67471;44.918;8.614;2023-05-10T00:48:39;15.45;;;11.25;;
77055;SDS011;67471;44.918;8.614;2023-05-10T00:51:43;15.25;;;10.18;;
77055;SDS011;67471;44.918;8.614;2023-05-10T00:54:48;14.20;;;9.90;;
77055;SDS011;67471;44.918;8.614;2023-05-10T00:57:52;13.25;;;8.93;;
77055;SDS011;67471;44.918;8.614;2023-05-10T01:00:56;10.10;;;8.60;;
77055;SDS011;67471;44.918;8.614;2023-05-10T01:04:00;12.32;;;8.65;;
77055;SDS011;67471;44.918;8.614;2023-05-10T01:07:04;11.68;;;8.52;;
77055;SDS011;67471;44.918;8.614;2023-05-10T01:10:07;9.32;;;7.85;;
77055;SDS011;67471;44.918;8.614;2023-05-10T01:13:13;11.48;;;8.45;;
77055;SDS011;67471;44.918;8.614;2023-05-10T01:16:21;11.50;;;8.10;;
77055;SDS011;67471;44.918;8.614;2023-05-10T01:19:26;10.30;;;7.95;;
77055;SDS011;67471;44.918;8.614;2023-05-10T01:36:11;11.77;;;10.00;;
77055;SDS011;67471;44.918;8.614;2023-05-10T01:39:25;11.57;;;9.48;;
77055;SDS011;67471;44.918;8.614;2023-05-10T01:42:40;12.80;;;9.68;;
77055;SDS011;67471;44.918;8.614;2023-05-10T01:46:00;12.55;;;9.13;;
77055;SDS011;67471;44.918;8.614;2023-05-10T01:49:20;11.55;;;8.82;;
77055;SDS011;67471;44.918;8.614;2023-05-10T01:52:30;11.10;;;8.70;;
77055;SDS011;67471;44.918;8.614;2023-05-10T01:55:43;10.32;;;8.27;;
77055;SDS011;67471;44.918;8.614;2023-05-10T01:58:50;10.25;;;7.88;;
77055;SDS011;67471;44.918;8.614;2023-05-10T02:01:57;9.40;;;7.50;;
77055;SDS011;67471;44.918;8.614;2023-05-10T02:05:06;10.25;;;8.63;;
77055;SDS011;67471;44.918;8.614;2023-05-10T02:08:11;11.33;;;9.07;;
77055;SDS011;67471;44.918;8.614;2023-05-10T02:11:17;12.48;;;9.05;;
77055;SDS011;67471;44.918;8.614;2023-05-10T02:14:24;11.85;;;9.52;;
77055;SDS011;67471;44.918;8.614;2023-05-10T02:17:30;14.02;;;10.75;;
77055;SDS011;67471;44.918;8.614;2023-05-10T02:20:35;15.65;;;12.13;;
77055;SDS011;67471;44.918;8.614;2023-05-10T02:23:40;19.52;;;13.00;;
77055;SDS011;67471;44.918;8.614;2023-05-10T02:26:44;19.73;;;13.40;;
77055;SDS011;67471;44.918;8.614;2023-05-10T02:29:51;21.30;;;14.23;;
77055;SDS011;67471;44.918;8.614;2023-05-10T02:32:56;20.23;;;14.55;;
77055;SDS011;67471;44.918;8.614;2023-05-10T02:36:02;21.10;;;16.17;;
77055;SDS011;67471;44.918;8.614;2023-05-10T02:39:06;24.30;;;17.77;;
77055;SDS011;67471;44.918;8.614;2023-05-10T02:42:16;24.98;;;17.27;;
77055;SDS011;67471;44.918;8.614;2023-05-10T02:45:23;25.98;;;17.67;;
77055;SDS011;67471;44.918;8.614;2023-05-10T02:48:31;24.35;;;17.33;;
77055;SDS011;67471;44.918;8.614;2023-05-10T02:51:35;24.45;;;16.75;;
77055;SDS011;67471;44.918;8.614;2023-05-10T02:54:45;25.75;;;17.08;;
77055;SDS011;67471;44.918;8.614;2023-05-10T02:57:54;23.80;;;16.15;;
77055;SDS011;67471;44.918;8.614;2023-05-10T03:01:01;24.42;;;16.75;;
77055;SDS011;67471;44.918;8.614;2023-05-10T03:04:05;19.50;;;14.50;;
77055;SDS011;67471;44.918;8.614;2023-05-10T03:07:09;18.20;;;13.50;;
77055;SDS011;67471;44.918;8.614;2023-05-10T03:10:13;15.75;;;11.63;;
77055;SDS011;67471;44.918;8.614;2023-05-10T03:13:29;17.35;;;11.60;;
77055;SDS011;67471;44.918;8.614;2023-05-10T03:16:42;12.80;;;9.43;;
77055;SDS011;67471;44.918;8.614;2023-05-10T03:21:17;10.10;;;7.22;;
77055;SDS011;67471;44.918;8.614;2023-05-10T03:23:59;10.02;;;6.78;;
77055;SDS011;67471;44.918;8.614;2023-05-10T03:27:11;10.02;;;6.47;;
77055;SDS011;67471;44.918;8.614;2023-05-10T03:30:16;7.97;;;5.13;;
77055;SDS011;67471;44.918;8.614;2023-05-10T03:33:20;6.07;;;4.40;;
77055;SDS011;67471;44.918;8.614;2023-05-10T03:36:24;6.55;;;5.00;;
77055;SDS011;67471;44.918;8.614;2023-05-10T03:39:28;5.38;;;4.40;;
77055;SDS011;67471;44.918;8.614;2023-05-10T03:42:35;6.43;;;5.38;;
77055;SDS011;67471;44.918;8.614;2023-05-10T03:45:39;6.30;;;5.32;;
77055;SDS011;67471;44.918;8.614;2023-05-10T03:48:43;8.30;;;5.80;;
77055;SDS011;67471;44.918;8.614;2023-05-10T03:51:47;8.82;;;6.78;;
77055;SDS011;67471;44.918;8.614;2023-05-10T03:54:51;7.80;;;6.25;;
77055;SDS011;67471;44.918;8.614;2023-05-10T03:57:54;9.10;;;6.80;;
77055;SDS011;67471;44.918;8.614;2023-05-10T04:00:59;8.00;;;6.22;;
77055;SDS011;67471;44.918;8.614;2023-05-10T04:04:03;9.25;;;6.90;;
77055;SDS011;67471;44.918;8.614;2023-05-10T04:07:08;9.82;;;7.13;;
77055;SDS011;67471;44.918;8.614;2023-05-10T04:10:13;10.75;;;7.43;;
77055;SDS011;67471;44.918;8.614;2023-05-10T04:13:17;8.88;;;6.53;;
77055;SDS011;67471;44.918;8.614;2023-05-10T04:16:20;11.70;;;6.38;;
77055;SDS011;67471;44.918;8.614;2023-05-10T04:19:28;10.82;;;7.03;;
77055;SDS011;67471;44.918;8.614;2023-05-10T04:22:33;6.70;;;5.38;;
77055;SDS011;67471;44.918;8.614;2023-05-10T04:25:37;6.47;;;4.75;;
77055;SDS011;67471;44.918;8.614;2023-05-10T04:28:41;9.27;;;4.90;;
77055;SDS011;67471;44.918;8.614;2023-05-10T04:31:44;7.15;;;4.80;;
77055;SDS011;67471;44.918;8.614;2023-05-10T04:34:48;6.53;;;4.45;;
77055;SDS011;67471;44.918;8.614;2023-05-10T04:37:52;8.77;;;5.88;;
77055;SDS011;67471;44.918;8.614;2023-05-10T04:41:05;8.50;;;6.03;;
77055;SDS011;67471;44.918;8.614;2023-05-10T04:44:10;9.93;;;6.45;;
77055;SDS011;67471;44.918;8.614;2023-05-10T04:47:14;10.25;;;7.05;;
77055;SDS011;67471;44.918;8.614;2023-05-10T04:50:19;8.07;;;6.57;;
77055;SDS011;67471;44.918;8.614;2023-05-10T04:53:23;8.23;;;6.13;;
77055;SDS011;67471;44.918;8.614;2023-05-10T04:56:26;10.52;;;8.00;;
77055;SDS011;67471;44.918;8.614;2023-05-10T04:59:30;8.88;;;7.15;;
77055;SDS011;67471;44.918;8.614;2023-05-10T05:02:34;9.82;;;6.50;;
77055;SDS011;67471;44.918;8.614;2023-05-10T05:05:38;9.23;;;6.53;;
77055;SDS011;67471;44.918;8.614;2023-05-10T05:08:42;9.32;;;7.55;;
77055;SDS011;67471;44.918;8.614;2023-05-10T05:11:46;9.90;;;7.38;;
77055;SDS011;67471;44.918;8.614;2023-05-10T05:14:49;7.95;;;6.20;;
77055;SDS011;67471;44.918;8.614;2023-05-10T05:17:53;11.13;;;7.22;;
77055;SDS011;67471;44.918;8.614;2023-05-10T05:20:57;9.55;;;7.15;;
77055;SDS011;67471;44.918;8.614;2023-05-10T05:24:01;8.50;;;6.70;;
77055;SDS011;67471;44.918;8.614;2023-05-10T05:27:04;10.05;;;6.68;;
77055;SDS011;67471;44.918;8.614;2023-05-10T05:30:09;8.68;;;6.03;;
77055;SDS011;67471;44.918;8.614;2023-05-10T05:33:13;8.50;;;6.32;;
77055;SDS011;67471;44.918;8.614;2023-05-10T05:36:19;8.88;;;6.38;;
77055;SDS011;67471;44.918;8.614;2023-05-10T05:39:22;8.95;;;6.45;;
77055;SDS011;67471;44.918;8.614;2023-05-10T05:42:27;9.38;;;6.78;;
77055;SDS011;67471;44.918;8.614;2023-05-10T05:45:31;8.60;;;6.88;;
77055;SDS011;67471;44.918;8.614;2023-05-10T05:48:35;8.98;;;7.03;;
77055;SDS011;67471;44.918;8.614;2023-05-10T05:51:39;9.15;;;5.88;;
77055;SDS011;67471;44.918;8.614;2023-05-10T05:54:43;7.82;;;5.93;;
77055;SDS011;67471;44.918;8.614;2023-05-10T05:57:46;8.02;;;6.00;;
77055;SDS011;67471;44.918;8.614;2023-05-10T06:00:50;10.88;;;5.95;;
77055;SDS011;67471;44.918;8.614;2023-05-10T06:03:57;7.55;;;5.68;;
77055;SDS011;67471;44.918;8.614;2023-05-10T06:07:01;7.95;;;5.60;;
77055;SDS011;67471;44.918;8.614;2023-05-10T06:10:05;9.63;;;6.32;;
77055;SDS011;67471;44.918;8.614;2023-05-10T06:13:10;9.90;;;6.40;;
77055;SDS011;67471;44.918;8.614;2023-05-10T06:16:14;7.80;;;5.78;;
77055;SDS011;67471;44.918;8.614;2023-05-10T06:19:17;8.68;;;6.38;;
77055;SDS011;67471;44.918;8.614;2023-05-10T06:22:21;6.70;;;5.20;;
77055;SDS011;67471;44.918;8.614;2023-05-10T06:25:26;7.43;;;5.30;;
77055;SDS011;67471;44.918;8.614;2023-05-10T06:28:30;6.75;;;5.28;;
77055;SDS011;67471;44.918;8.614;2023-05-10T06:31:35;6.68;;;4.95;;
77055;SDS011;67471;44.918;8.614;2023-05-10T06:34:39;9.98;;;5.55;;
77055;SDS011;67471;44.918;8.614;2023-05-10T06:37:42;8.35;;;5.70;;
77055;SDS011;67471;44.918;8.614;2023-05-10T06:40:46;7.43;;;4.93;;
77055;SDS011;67471;44.918;8.614;2023-05-10T06:43:50;7.47;;;5.20;;
77055;SDS011;67471;44.918;8.614;2023-05-10T06:46:55;5.75;;;4.45;;
77055;SDS011;67471;44.918;8.614;2023-05-10T06:49:59;5.50;;;4.55;;
77055;SDS011;67471;44.918;8.614;2023-05-10T06:53:03;5.75;;;4.45;;
77055;SDS011;67471;44.918;8.614;2023-05-10T06:56:07;5.43;;;4.38;;
77055;SDS011;67471;44.918;8.614;2023-05-10T06:59:10;7.47;;;4.60;;
77055;SDS011;67471;44.918;8.614;2023-05-10T07:02:15;7.03;;;4.00;;
77055;SDS011;67471;44.918;8.614;2023-05-10T07:05:19;5.72;;;3.85;;
77055;SDS011;67471;44.918;8.614;2023-05-10T07:08:22;7.57;;;4.22;;
77055;SDS011;67471;44.918;8.614;2023-05-10T07:11:26;6.25;;;3.70;;
77055;SDS011;67471;44.918;8.614;2023-05-10T07:14:30;6.25;;;3.78;;
77055;SDS011;67471;44.918;8.614;2023-05-10T07:17:36;5.03;;;4.10;;
77055;SDS011;67471;44.918;8.614;2023-05-10T07:20:40;4.72;;;3.55;;
77055;SDS011;67471;44.918;8.614;2023-05-10T07:23:44;5.40;;;3.97;;
77055;SDS011;67471;44.918;8.614;2023-05-10T07:26:48;4.65;;;3.45;;
77055;SDS011;67471;44.918;8.614;2023-05-10T07:29:51;4.75;;;3.13;;
77055;SDS011;67471;44.918;8.614;2023-05-10T07:32:55;5.82;;;3.55;;
77055;SDS011;67471;44.918;8.614;2023-05-10T07:35:59;5.65;;;4.05;;
77055;SDS011;67471;44.918;8.614;2023-05-10T07:39:03;6.22;;;3.60;;
77055;SDS011;67471;44.918;8.614;2023-05-10T07:42:07;4.35;;;3.30;;
77055;SDS011;67471;44.918;8.614;2023-05-10T07:45:11;4.97;;;3.30;;
77055;SDS011;67471;44.918;8.614;2023-05-10T07:48:15;5.03;;;3.42;;
77055;SDS011;67471;44.918;8.614;2023-05-10T07:51:19;4.55;;;3.20;;
77055;SDS011;67471;44.918;8.614;2023-05-10T07:54:23;4.45;;;3.20;;
77055;SDS011;67471;44.918;8.614;2023-05-10T07:57:27;5.75;;;3.65;;
77055;SDS011;67471;44.918;8.614;2023-05-10T08:00:31;5.38;;;3.40;;
77055;SDS011;67471;44.918;8.614;2023-05-10T08:03:35;4.20;;;3.00;;
77055;SDS011;67471;44.918;8.614;2023-05-10T08:06:39;4.68;;;3.10;;
77055;SDS011;67471;44.918;8.614;2023-05-10T08:09:43;5.22;;;2.97;;
77055;SDS011;67471;44.918;8.614;2023-05-10T08:12:47;3.97;;;2.92;;
77055;SDS011;67471;44.918;8.614;2023-05-10T08:15:51;4.75;;;2.80;;
77055;SDS011;67471;44.918;8.614;2023-05-10T08:18:56;4.45;;;2.78;;
77055;SDS011;67471;44.918;8.614;2023-05-10T08:22:00;5.13;;;2.95;;
77055;SDS011;67471;44.918;8.614;2023-05-10T08:25:04;4.40;;;2.80;;
77055;SDS011;67471;44.918;8.614;2023-05-10T08:28:08;4.57;;;2.75;;
77055;SDS011;67471;44.918;8.614;2023-05-10T08:31:12;4.15;;;2.72;;
77055;SDS011;67471;44.918;8.614;2023-05-10T08:34:15;4.25;;;3.08;;
77055;SDS011;67471;44.918;8.614;2023-05-10T08:37:19;3.30;;;2.33;;
77055;SDS011;67471;44.918;8.614;2023-05-10T08:40:23;4.30;;;2.80;;
77055;SDS011;67471;44.918;8.614;2023-05-10T08:43:29;3.95;;;3.00;;
77055;SDS011;67471;44.918;8.614;2023-05-10T08:46:33;4.28;;;3.88;;
77055;SDS011;67471;44.918;8.614;2023-05-10T08:49:42;4.75;;;3.72;;
77055;SDS011;67471;44.918;8.614;2023-05-10T08:52:48;4.22;;;3.83;;
77055;SDS011;67471;44.918;8.614;2023-05-10T08:55:54;5.55;;;4.30;;
77055;SDS011;67471;44.918;8.614;2023-05-10T08:58:58;6.82;;;4.38;;
77055;SDS011;67471;44.918;8.614;2023-05-10T09:02:02;6.25;;;4.38;;
77055;SDS011;67471;44.918;8.614;2023-05-10T09:05:08;4.05;;;2.75;;
77055;SDS011;67471;44.918;8.614;2023-05-10T09:08:13;18.25;;;7.80;;
77055;SDS011;67471;44.918;8.614;2023-05-10T09:11:20;22.73;;;12.10;;
77055;SDS011;67471;44.918;8.614;2023-05-10T09:14:25;16.38;;;9.95;;
77055;SDS011;67471;44.918;8.614;2023-05-10T09:17:29;5.82;;;4.18;;
77055;SDS011;67471;44.918;8.614;2023-05-10T09:20:33;3.97;;;2.72;;
77055;SDS011;67471;44.918;8.614;2023-05-10T09:23:37;32.83;;;20.35;;
77055;SDS011;67471;44.918;8.614;2023-05-10T09:26:48;7.38;;;3.60;;
77055;SDS011;67471;44.918;8.614;2023-05-10T09:29:52;4.82;;;2.80;;
77055;SDS011;67471;44.918;8.614;2023-05-10T09:32:58;4.32;;;2.53;;
77055;SDS011;67471;44.918;8.614;2023-05-10T09:36:06;3.08;;;2.40;;
77055;SDS011;67471;44.918;8.614;2023-05-10T09:39:10;2.60;;;2.00;;
77055;SDS011;67471;44.918;8.614;2023-05-10T09:42:17;3.72;;;2.00;;
77055;SDS011;67471;44.918;8.614;2023-05-10T09:45:23;2.90;;;1.67;;
77055;SDS011;67471;44.918;8.614;2023-05-10T09:48:27;2.20;;;1.50;;
77055;SDS011;67471;44.918;8.614;2023-05-10T09:51:31;5.35;;;1.70;;
77055;SDS011;67471;44.918;8.614;2023-05-10T09:54:35;3.20;;;1.88;;
77055;SDS011;67471;44.918;8.614;2023-05-10T09:57:39;2.13;;;1.50;;
77055;SDS011;67471;44.918;8.614;2023-05-10T10:00:44;2.50;;;1.60;;
77055;SDS011;67471;44.918;8.614;2023-05-10T10:03:48;3.35;;;2.20;;
77055;SDS011;67471;44.918;8.614;2023-05-10T10:07:03;5.60;;;2.85;;
77055;SDS011;67471;44.918;8.614;2023-05-10T10:10:07;2.90;;;1.83;;
77055;SDS011;67471;44.918;8.614;2023-05-10T10:13:14;2.97;;;1.83;;
77055;SDS011;67471;44.918;8.614;2023-05-10T10:16:18;2.38;;;1.67;;
77055;SDS011;67471;44.918;8.614;2023-05-10T10:19:23;3.38;;;1.85;;
77055;SDS011;67471;44.918;8.614;2023-05-10T10:22:27;2.40;;;1.50;;
77055;SDS011;67471;44.918;8.614;2023-05-10T10:25:31;2.08;;;1.50;;
77055;SDS011;67471;44.918;8.614;2023-05-10T10:28:39;3.10;;;1.38;;
77055;SDS011;67471;44.918;8.614;2023-05-10T10:35:17;2.72;;;1.85;;
77055;SDS011;67471;44.918;8.614;2023-05-10T10:38:42;2.70;;;1.30;;
77055;SDS011;67471;44.918;8.614;2023-05-10T10:41:55;1.83;;;1.20;;
77055;SDS011;67471;44.918;8.614;2023-05-10T10:45:12;2.80;;;1.50;;
77055;SDS011;67471;44.918;8.614;2023-05-10T10:48:20;2.22;;;1.52;;
77055;SDS011;67471;44.918;8.614;2023-05-10T10:51:28;2.63;;;1.38;;
77055;SDS011;67471;44.918;8.614;2023-05-10T10:54:49;4.85;;;2.00;;
77055;SDS011;67471;44.918;8.614;2023-05-10T10:57:55;3.97;;;1.90;;
77055;SDS011;67471;44.918;8.614;2023-05-10T11:01:15;3.22;;;1.85;;
77055;SDS011;67471;44.918;8.614;2023-05-10T11:04:20;3.28;;;2.05;;
77055;SDS011;67471;44.918;8.614;2023-05-10T11:07:24;3.53;;;2.40;;
77055;SDS011;67471;44.918;8.614;2023-05-10T11:10:28;5.28;;;3.00;;
77055;SDS011;67471;44.918;8.614;2023-05-10T11:13:33;3.20;;;2.50;;
77055;SDS011;67471;44.918;8.614;2023-05-10T11:16:57;2.67;;;2.00;;
77055;SDS011;67471;44.918;8.614;2023-05-10T11:20:13;2.90;;;1.92;;
77055;SDS011;67471;44.918;8.614;2023-05-10T11:23:17;2.85;;;1.90;;
77055;SDS011;67471;44.918;8.614;2023-05-10T11:26:30;3.15;;;2.03;;
77055;SDS011;67471;44.918;8.614;2023-05-10T11:29:34;2.63;;;1.92;;
77055;SDS011;67471;44.918;8.614;2023-05-10T11:32:38;4.15;;;2.17;;
77055;SDS011;67471;44.918;8.614;2023-05-10T11:35:42;3.10;;;1.92;;
77055;SDS011;67471;44.918;8.614;2023-05-10T11:38:46;4.47;;;1.73;;
77055;SDS011;67471;44.918;8.614;2023-05-10T11:41:51;3.30;;;2.15;;
77055;SDS011;67471;44.918;8.614;2023-05-10T11:44:55;3.47;;;2.15;;
77055;SDS011;67471;44.918;8.614;2023-05-10T11:47:59;3.47;;;1.77;;
77055;SDS011;67471;44.918;8.614;2023-05-10T11:51:04;4.55;;;2.00;;
77055;SDS011;67471;44.918;8.614;2023-05-10T11:54:08;4.65;;;1.55;;
77055;SDS011;67471;44.918;8.614;2023-05-10T11:57:13;2.55;;;1.50;;
77055;SDS011;67471;44.918;8.614;2023-05-10T12:00:17;2.75;;;1.77;;
77055;SDS011;67471;44.918;8.614;2023-05-10T12:03:21;2.35;;;1.60;;
77055;SDS011;67471;44.918;8.614;2023-05-10T12:06:32;2.30;;;1.48;;
77055;SDS011;67471;44.918;8.614;2023-05-10T12:09:42;2.30;;;1.35;;
77055;SDS011;67471;44.918;8.614;2023-05-10T12:15:53;2.70;;;1.42;;
77055;SDS011;67471;44.918;8.614;2023-05-10T12:18:57;3.72;;;1.77;;
77055;SDS011;67471;44.918;8.614;2023-05-10T12:22:04;4.10;;;2.10;;
77055;SDS011;67471;44.918;8.614;2023-05-10T12:25:09;2.83;;;1.83;;
77055;SDS011;67471;44.918;8.614;2023-05-10T12:28:13;3.25;;;1.70;;
77055;SDS011;67471;44.918;8.614;2023-05-10T12:31:17;4.55;;;1.40;;
77055;SDS011;67471;44.918;8.614;2023-05-10T12:34:22;2.00;;;1.40;;
77055;SDS011;67471;44.918;8.614;2023-05-10T12:37:36;2.28;;;1.40;;
77055;SDS011;67471;44.918;8.614;2023-05-10T12:40:42;2.40;;;1.50;;
77055;SDS011;67471;44.918;8.614;2023-05-10T12:43:45;3.00;;;1.58;;
77055;SDS011;67471;44.918;8.614;2023-05-10T12:46:49;4.03;;;1.58;;
77055;SDS011;67471;44.918;8.614;2023-05-10T12:49:53;4.13;;;1.42;;
77055;SDS011;67471;44.918;8.614;2023-05-10T12:52:57;1.90;;;1.30;;
77055;SDS011;67471;44.918;8.614;2023-05-10T12:56:01;2.45;;;1.65;;
77055;SDS011;67471;44.918;8.614;2023-05-10T12:59:04;4.03;;;1.50;;
77055;SDS011;67471;44.918;8.614;2023-05-10T13:02:08;2.60;;;1.50;;
77055;SDS011;67471;44.918;8.614;2023-05-10T13:05:12;2.78;;;1.60;;
77055;SDS011;67471;44.918;8.614;2023-05-10T13:08:16;1.92;;;1.30;;
77055;SDS011;67471;44.918;8.614;2023-05-10T13:11:20;2.45;;;1.48;;
77055;SDS011;67471;44.918;8.614;2023-05-10T13:14:24;1.92;;;1.33;;
77055;SDS011;67471;44.918;8.614;2023-05-10T13:17:28;2.83;;;1.65;;
77055;SDS011;67471;44.918;8.614;2023-05-10T13:20:32;2.45;;;1.45;;
77055;SDS011;67471;44.918;8.614;2023-05-10T13:23:36;2.58;;;1.58;;
77055;SDS011;67471;44.918;8.614;2023-05-10T13:26:40;1.80;;;1.17;;
77055;SDS011;67471;44.918;8.614;2023-05-10T13:29:44;2.65;;;1.75;;
77055;SDS011;67471;44.918;8.614;2023-05-10T13:32:48;4.53;;;1.70;;
77055;SDS011;67471;44.918;8.614;2023-05-10T13:35:52;2.33;;;1.60;;
77055;SDS011;67471;44.918;8.614;2023-05-10T13:38:55;3.22;;;1.60;;
77055;SDS011;67471;44.918;8.614;2023-05-10T13:41:59;2.40;;;1.50;;
77055;SDS011;67471;44.918;8.614;2023-05-10T13:45:03;2.13;;;1.48;;
77055;SDS011;67471;44.918;8.614;2023-05-10T13:48:09;3.22;;;2.20;;
77055;SDS011;67471;44.918;8.614;2023-05-10T13:51:13;3.22;;;1.60;;
77055;SDS011;67471;44.918;8.614;2023-05-10T13:54:17;2.55;;;1.58;;
77055;SDS011;67471;44.918;8.614;2023-05-10T13:57:23;2.55;;;1.80;;
77055;SDS011;67471;44.918;8.614;2023-05-10T14:00:27;2.67;;;1.90;;
77055;SDS011;67471;44.918;8.614;2023-05-10T14:03:31;3.10;;;1.65;;
77055;SDS011;67471;44.918;8.614;2023-05-10T14:06:36;3.33;;;1.83;;
77055;SDS011;67471;44.918;8.614;2023-05-10T14:09:40;2.35;;;1.40;;
77055;SDS011;67471;44.918;8.614;2023-05-10T14:12:45;3.78;;;1.83;;
77055;SDS011;67471;44.918;8.614;2023-05-10T14:15:49;3.33;;;1.48;;
77055;SDS011;67471;44.918;8.614;2023-05-10T14:18:52;2.50;;;1.50;;
77055;SDS011;67471;44.918;8.614;2023-05-10T14:21:56;2.00;;;1.20;;
77055;SDS011;67471;44.918;8.614;2023-05-10T14:25:00;4.05;;;1.60;;
77055;SDS011;67471;44.918;8.614;2023-05-10T14:28:04;2.25;;;1.40;;
77055;SDS011;67471;44.918;8.614;2023-05-10T14:31:08;2.17;;;1.23;;
77055;SDS011;67471;44.918;8.614;2023-05-10T14:34:12;2.28;;;1.23;;
77055;SDS011;67471;44.918;8.614;2023-05-10T14:37:16;4.80;;;1.50;;
77055;SDS011;67471;44.918;8.614;2023-05-10T14:40:19;3.83;;;1.40;;
77055;SDS011;67471;44.918;8.614;2023-05-10T14:43:24;2.88;;;1.48;;
77055;SDS011;67471;44.918;8.614;2023-05-10T14:46:27;3.97;;;1.50;;
77055;SDS011;67471;44.918;8.614;2023-05-10T14:49:31;3.15;;;1.70;;
77055;SDS011;67471;44.918;8.614;2023-05-10T14:52:35;4.82;;;2.03;;
77055;SDS011;67471;44.918;8.614;2023-05-10T14:55:39;2.50;;;1.60;;
77055;SDS011;67471;44.918;8.614;2023-05-10T14:58:43;2.67;;;1.50;;
77055;SDS011;67471;44.918;8.614;2023-05-10T15:01:47;2.67;;;1.40;;
77055;SDS011;67471;44.918;8.614;2023-05-10T15:04:51;3.72;;;1.40;;
77055;SDS011;67471;44.918;8.614;2023-05-10T15:07:55;2.30;;;1.50;;
77055;SDS011;67471;44.918;8.614;2023-05-10T15:10:58;3.92;;;1.40;;
77055;SDS011;67471;44.918;8.614;2023-05-10T15:14:02;6.07;;;2.20;;
77055;SDS011;67471;44.918;8.614;2023-05-10T15:17:06;2.42;;;1.60;;
77055;SDS011;67471;44.918;8.614;2023-05-10T15:20:11;3.92;;;1.73;;
77055;SDS011;67471;44.918;8.614;2023-05-10T15:23:14;3.65;;;1.30;;
77055;SDS011;67471;44.918;8.614;2023-05-10T15:26:18;2.80;;;1.67;;
77055;SDS011;67471;44.918;8.614;2023-05-10T15:29:22;2.85;;;1.50;;
77055;SDS011;67471;44.918;8.614;2023-05-10T15:32:26;3.20;;;1.65;;
77055;SDS011;67471;44.918;8.614;2023-05-10T15:35:30;3.95;;;1.50;;
77055;SDS011;67471;44.918;8.614;2023-05-10T15:38:33;2.38;;;1.52;;
77055;SDS011;67471;44.918;8.614;2023-05-10T15:41:37;2.88;;;1.60;;
77055;SDS011;67471;44.918;8.614;2023-05-10T15:44:41;3.30;;;1.70;;
77055;SDS011;67471;44.918;8.614;2023-05-10T15:47:47;2.00;;;1.33;;
77055;SDS011;67471;44.918;8.614;2023-05-10T15:50:51;2.58;;;1.60;;
77055;SDS011;67471;44.918;8.614;2023-05-10T15:53:55;4.20;;;2.40;;
77055;SDS011;67471;44.918;8.614;2023-05-10T15:56:59;2.55;;;1.63;;
77055;SDS011;67471;44.918;8.614;2023-05-10T16:00:04;2.90;;;1.95;;
77055;SDS011;67471;44.918;8.614;2023-05-10T16:03:15;4.05;;;2.00;;
77055;SDS011;67471;44.918;8.614;2023-05-10T16:06:19;3.65;;;1.60;;
77055;SDS011;67471;44.918;8.614;2023-05-10T16:09:22;3.10;;;1.75;;
77055;SDS011;67471;44.918;8.614;2023-05-10T16:12:26;2.20;;;1.50;;
77055;SDS011;67471;44.918;8.614;2023-05-10T16:15:31;5.72;;;2.40;;
77055;SDS011;67471;44.918;8.614;2023-05-10T16:18:35;3.08;;;2.03;;
77055;SDS011;67471;44.918;8.614;2023-05-10T16:21:38;3.20;;;1.40;;
77055;SDS011;67471;44.918;8.614;2023-05-10T16:24:42;4.22;;;1.70;;
77055;SDS011;67471;44.918;8.614;2023-05-10T16:27:46;2.50;;;1.48;;
77055;SDS011;67471;44.918;8.614;2023-05-10T16:30:50;2.13;;;1.33;;
77055;SDS011;67471;44.918;8.614;2023-05-10T16:33:54;2.63;;;1.75;;
77055;SDS011;67471;44.918;8.614;2023-05-10T16:36:58;2.42;;;1.52;;
77055;SDS011;67471;44.918;8.614;2023-05-10T16:40:01;2.33;;;1.35;;
77055;SDS011;67471;44.918;8.614;2023-05-10T16:43:07;2.83;;;1.30;;
77055;SDS011;67471;44.918;8.614;2023-05-10T16:46:11;3.05;;;1.30;;
77055;SDS011;67471;44.918;8.614;2023-05-10T16:49:15;3.00;;;1.90;;
77055;SDS011;67471;44.918;8.614;2023-05-10T16:52:19;3.35;;;1.58;;
77055;SDS011;67471;44.918;8.614;2023-05-10T16:55:23;2.22;;;1.60;;
77055;SDS011;67471;44.918;8.614;2023-05-10T16:58:26;2.42;;;1.50;;
77055;SDS011;67471;44.918;8.614;2023-05-10T17:01:30;3.28;;;2.20;;
77055;SDS011;67471;44.918;8.614;2023-05-10T17:04:34;2.40;;;1.60;;
77055;SDS011;67471;44.918;8.614;2023-05-10T17:07:38;3.33;;;2.55;;
77055;SDS011;67471;44.918;8.614;2023-05-10T17:10:42;4.15;;;2.10;;
77055;SDS011;67471;44.918;8.614;2023-05-10T17:13:46;3.10;;;1.60;;
77055;SDS011;67471;44.918;8.614;2023-05-10T17:16:50;3.72;;;2.50;;
77055;SDS011;67471;44.918;8.614;2023-05-10T17:19:55;3.42;;;2.30;;
77055;SDS011;67471;44.918;8.614;2023-05-10T17:22:59;5.05;;;3.97;;
77055;SDS011;67471;44.918;8.614;2023-05-10T17:26:05;4.18;;;2.60;;
77055;SDS011;67471;44.918;8.614;2023-05-10T17:29:09;3.75;;;3.22;;
77055;SDS011;67471;44.918;8.614;2023-05-10T17:32:12;3.30;;;2.20;;
77055;SDS011;67471;44.918;8.614;2023-05-10T17:35:16;4.18;;;2.10;;
77055;SDS011;67471;44.918;8.614;2023-05-10T17:38:20;4.38;;;2.40;;
77055;SDS011;67471;44.918;8.614;2023-05-10T17:41:24;5.50;;;2.20;;
77055;SDS011;67471;44.918;8.614;2023-05-10T17:44:28;4.80;;;2.78;;
77055;SDS011;67471;44.918;8.614;2023-05-10T17:47:31;3.70;;;2.28;;
77055;SDS011;67471;44.918;8.614;2023-05-10T17:50:36;5.53;;;2.70;;
77055;SDS011;67471;44.918;8.614;2023-05-10T17:53:40;3.67;;;2.47;;
77055;SDS011;67471;44.918;8.614;2023-05-10T17:56:44;3.50;;;2.60;;
77055;SDS011;67471;44.918;8.614;2023-05-10T17:59:48;3.55;;;2.45;;
77055;SDS011;67471;44.918;8.614;2023-05-10T18:02:51;4.90;;;2.72;;
77055;SDS011;67471;44.918;8.614;2023-05-10T18:05:58;3.85;;;2.80;;
77055;SDS011;67471;44.918;8.614;2023-05-10T18:09:02;3.85;;;2.30;;
77055;SDS011;67471;44.918;8.614;2023-05-10T18:12:07;3.63;;;2.80;;
77055;SDS011;67471;44.918;8.614;2023-05-10T18:15:12;3.88;;;2.70;;
77055;SDS011;67471;44.918;8.614;2023-05-10T18:18:16;6.40;;;2.90;;
77055;SDS011;67471;44.918;8.614;2023-05-10T18:21:19;4.47;;;2.80;;
77055;SDS011;67471;44.918;8.614;2023-05-10T18:24:23;3.83;;;2.70;;
77055;SDS011;67471;44.918;8.614;2023-05-10T18:27:27;5.20;;;2.70;;
77055;SDS011;67471;44.918;8.614;2023-05-10T18:30:31;4.43;;;2.45;;
77055;SDS011;67471;44.918;8.614;2023-05-10T18:33:35;4.55;;;2.95;;
77055;SDS011;67471;44.918;8.614;2023-05-10T18:36:40;4.25;;;3.13;;
77055;SDS011;67471;44.918;8.614;2023-05-10T18:39:46;4.32;;;3.17;;
77055;SDS011;67471;44.918;8.614;2023-05-10T18:42:49;5.13;;;3.05;;
77055;SDS011;67471;44.918;8.614;2023-05-10T18:45:54;4.20;;;2.90;;
77055;SDS011;67471;44.918;8.614;2023-05-10T18:48:57;4.43;;;3.08;;
77055;SDS011;67471;44.918;8.614;2023-05-10T18:52:01;4.47;;;3.15;;